KLM989 LFPG-EDDS
Flight info
| Callsign | KLM989 |
|---|---|
| Flight time | N/A |
| Altitude | 21000 |
| Route | LANVI DCT LUPEN/N0405F230 T126 REUTL REUTL1W |
| Aircraft | B739/M-SDE2E3FGHIRWXY/LB1 |
Departure
| Time | 2026-05-05 20:52 |
|---|---|
| Airport | Charles de Gaulle International Airport (LFPG) |
Arrival
| Time | N/A |
|---|---|
| Airport | Stuttgart Airport (EDDS) |
| Time | Latitude | Longitude | Altitude | Speed | Heading |
|---|---|---|---|---|---|
| 2026-05-05 20:16 | 49.01167 | 2.55376 | 353 ft | 0 kts | 176° |
| 2026-05-05 20:25 | 49.01181 | 2.55368 | 363 ft | 2 kts | 154° |
| 2026-05-05 20:25 | 49.01196 | 2.55362 | 356 ft | 2 kts | 177° |
| 2026-05-05 20:26 | 49.01213 | 2.55362 | 355 ft | 2 kts | 179° |
| 2026-05-05 20:26 | 49.01222 | 2.55361 | 357 ft | 2 kts | 177° |
| 2026-05-05 20:26 | 49.01223 | 2.55361 | 357 ft | 2 kts | 176° |
| 2026-05-05 20:27 | 49.01240 | 2.55364 | 362 ft | 2 kts | 214° |
| 2026-05-05 20:27 | 49.01251 | 2.55382 | 363 ft | 2 kts | 245° |
| 2026-05-05 20:27 | 49.01255 | 2.55400 | 359 ft | 1 kts | 261° |
| 2026-05-05 20:27 | 49.01256 | 2.55403 | 359 ft | 0 kts | 263° |
| 2026-05-05 20:41 | 49.01254 | 2.55385 | 362 ft | 4 kts | 263° |
| 2026-05-05 20:41 | 49.01248 | 2.55310 | 353 ft | 10 kts | 265° |
| 2026-05-05 20:42 | 49.01291 | 2.55220 | 358 ft | 14 kts | 346° |
| 2026-05-05 20:42 | 49.01395 | 2.55193 | 353 ft | 17 kts | 349° |
| 2026-05-05 20:42 | 49.01522 | 2.55167 | 357 ft | 20 kts | 355° |
| 2026-05-05 20:42 | 49.01670 | 2.55147 | 357 ft | 23 kts | 355° |
| 2026-05-05 20:43 | 49.01808 | 2.55130 | 357 ft | 18 kts | 353° |
| 2026-05-05 20:43 | 49.01928 | 2.55092 | 357 ft | 17 kts | 346° |
| 2026-05-05 20:43 | 49.02018 | 2.54991 | 357 ft | 17 kts | 291° |
| 2026-05-05 20:43 | 49.02044 | 2.54820 | 358 ft | 16 kts | 283° |
| 2026-05-05 20:44 | 49.02051 | 2.54770 | 357 ft | 0 kts | 278° |
| 2026-05-05 20:44 | 49.02052 | 2.54767 | 356 ft | 1 kts | 278° |
| 2026-05-05 20:44 | 49.02052 | 2.54759 | 355 ft | 0 kts | 278° |
| 2026-05-05 20:44 | 49.02049 | 2.54741 | 353 ft | 4 kts | 244° |
| 2026-05-05 20:45 | 49.02010 | 2.54537 | 353 ft | 16 kts | 265° |
| 2026-05-05 20:45 | 49.02004 | 2.54404 | 361 ft | 5 kts | 266° |
| 2026-05-05 20:45 | 49.02000 | 2.54321 | 359 ft | 11 kts | 266° |
| 2026-05-05 20:46 | 49.01976 | 2.54184 | 354 ft | 16 kts | 237° |
| 2026-05-05 20:46 | 49.01897 | 2.54048 | 356 ft | 19 kts | 256° |
| 2026-05-05 20:46 | 49.01881 | 2.53827 | 353 ft | 23 kts | 266° |
| 2026-05-05 20:46 | 49.01871 | 2.53610 | 353 ft | 20 kts | 266° |
| 2026-05-05 20:47 | 49.01855 | 2.53392 | 353 ft | 19 kts | 264° |
| 2026-05-05 20:47 | 49.01847 | 2.53179 | 353 ft | 20 kts | 267° |
| 2026-05-05 20:47 | 49.01837 | 2.52951 | 353 ft | 19 kts | 263° |
| 2026-05-05 20:47 | 49.01824 | 2.52728 | 355 ft | 16 kts | 265° |
| 2026-05-05 20:48 | 49.01813 | 2.52532 | 357 ft | 21 kts | 265° |
| 2026-05-05 20:48 | 49.01844 | 2.52369 | 355 ft | 9 kts | 330° |
| 2026-05-05 20:48 | 49.01924 | 2.52347 | 353 ft | 14 kts | 356° |
| 2026-05-05 20:48 | 49.02004 | 2.52339 | 360 ft | 0 kts | 355° |
| 2026-05-05 20:50 | 49.02033 | 2.52335 | 359 ft | 8 kts | 355° |
| 2026-05-05 20:50 | 49.02107 | 2.52367 | 355 ft | 14 kts | 44° |
| 2026-05-05 20:51 | 49.02129 | 2.52536 | 355 ft | 19 kts | 86° |
| 2026-05-05 20:51 | 49.02151 | 2.52884 | 361 ft | 66 kts | 84° |
| 2026-05-05 20:51 | 49.02213 | 2.53989 | 352 ft | 140 kts | 83° |
| 2026-05-05 20:51 | 49.02333 | 2.55722 | 502 ft | 182 kts | 82° |
| 2026-05-05 20:52 | 49.02447 | 2.57626 | 1365 ft | 188 kts | 80° |
| 2026-05-05 20:52 | 49.02540 | 2.59703 | 2215 ft | 194 kts | 81° |
| 2026-05-05 20:52 | 49.02633 | 2.61714 | 3035 ft | 201 kts | 81° |
| 2026-05-05 20:52 | 49.02750 | 2.63939 | 3274 ft | 222 kts | 82° |
| 2026-05-05 20:53 | 49.02882 | 2.66375 | 3638 ft | 236 kts | 83° |
| 2026-05-05 20:53 | 49.03009 | 2.68905 | 4157 ft | 243 kts | 84° |
| 2026-05-05 20:53 | 49.03141 | 2.71497 | 4607 ft | 255 kts | 85° |
| 2026-05-05 20:53 | 49.03276 | 2.74289 | 5039 ft | 269 kts | 85° |
| 2026-05-05 20:54 | 49.03413 | 2.77149 | 5819 ft | 271 kts | 85° |
| 2026-05-05 20:54 | 49.03549 | 2.80018 | 6582 ft | 274 kts | 85° |
| 2026-05-05 20:54 | 49.03687 | 2.82898 | 7244 ft | 278 kts | 86° |
| 2026-05-05 20:54 | 49.03828 | 2.85852 | 7992 ft | 281 kts | 86° |
| 2026-05-05 20:55 | 49.03971 | 2.88849 | 8673 ft | 286 kts | 86° |
| 2026-05-05 20:55 | 49.04114 | 2.91902 | 9394 ft | 289 kts | 87° |
| 2026-05-05 20:55 | 49.04124 | 2.94968 | 10086 ft | 291 kts | 101° |
| 2026-05-05 20:55 | 49.03663 | 2.98028 | 10437 ft | 307 kts | 106° |
| 2026-05-05 20:56 | 49.03085 | 3.01279 | 10599 ft | 329 kts | 107° |
| 2026-05-05 20:56 | 49.02457 | 3.04753 | 10757 ft | 350 kts | 107° |
| 2026-05-05 20:56 | 49.01803 | 3.08420 | 10948 ft | 367 kts | 106° |
| 2026-05-05 20:56 | 49.01145 | 3.12182 | 11333 ft | 377 kts | 106° |
| 2026-05-05 20:57 | 49.00474 | 3.16062 | 11939 ft | 381 kts | 107° |
| 2026-05-05 20:57 | 48.99666 | 3.19921 | 12597 ft | 382 kts | 111° |
| 2026-05-05 20:57 | 48.98732 | 3.23717 | 13211 ft | 385 kts | 113° |
| 2026-05-05 20:57 | 48.97745 | 3.27534 | 13804 ft | 389 kts | 113° |
| 2026-05-05 20:58 | 48.96745 | 3.31370 | 14343 ft | 392 kts | 113° |
| 2026-05-05 20:58 | 48.95746 | 3.35229 | 14898 ft | 394 kts | 113° |
| 2026-05-05 20:58 | 48.94746 | 3.39134 | 15446 ft | 397 kts | 112° |
| 2026-05-05 20:58 | 48.93747 | 3.43061 | 15975 ft | 400 kts | 112° |
| 2026-05-05 20:59 | 48.92746 | 3.47017 | 16507 ft | 403 kts | 112° |
| 2026-05-05 20:59 | 48.91739 | 3.51004 | 17026 ft | 405 kts | 113° |
| 2026-05-05 20:59 | 48.90738 | 3.54973 | 17512 ft | 409 kts | 113° |
| 2026-05-05 20:59 | 48.89704 | 3.59065 | 18034 ft | 412 kts | 113° |
| 2026-05-05 21:00 | 48.88674 | 3.63139 | 18505 ft | 414 kts | 112° |
| 2026-05-05 21:00 | 48.87654 | 3.67169 | 18802 ft | 416 kts | 112° |
| 2026-05-05 21:00 | 48.86612 | 3.71275 | 18797 ft | 415 kts | 112° |
| 2026-05-05 21:00 | 48.85575 | 3.75356 | 18809 ft | 414 kts | 112° |
| 2026-05-05 21:01 | 48.84537 | 3.79436 | 18817 ft | 415 kts | 112° |
| 2026-05-05 21:01 | 48.83497 | 3.83510 | 18823 ft | 415 kts | 113° |
| 2026-05-05 21:01 | 48.82451 | 3.87602 | 18825 ft | 415 kts | 113° |
| 2026-05-05 21:01 | 48.81405 | 3.91685 | 18822 ft | 415 kts | 113° |
| 2026-05-05 21:02 | 48.80358 | 3.95768 | 18823 ft | 416 kts | 113° |